Terminal Aerodrome Forecast
Issued by NWS

Home | Current Version | Previous Version | Text Only | Print | Product List | Glossary On
Versions: 1 2 3 4 5 6 7 8 9 10 11 12 13 14 15 16 17 18 19
000
FTUS44 KLZK 261500 AAA
TAFHRO
TAF AMD
KHRO 261512Z 2615/2712 02010KT P6SM OVC015
     FM261800 03010KT P6SM BKN030
     FM262300 05010KT P6SM SCT030=

USA.gov is the U.S. government's official web portal to all federal, state and local government web resources and services.